ラスベガス の空港の天気 - METARとTAF

マッカラン国際空港 ( KLAS / LAS ) - アメリカ合衆国 ネバダ州ラスベガス
飛行場実況気象(Metar)
観測時間03/25 23:56 PDT (03/26 06:56 UTC)
風向・風速北 3m/s
視程10km以上
天気現象
少しの雲 雲底高度 3050m
気温15.6℃
湿度39%
気圧1013.7hPa
METARKLAS 260656Z 01006KT 10SM FEW100 16/02 A2997 RMK AO2 SLP137 T01560017
過去の天気等 Google飛行場航空写真 Wunderground天気予報

過去48時間のMETAR

飛行場予報(TAF)
発表時間: 3/25 22:20 PDT (3/26 05:20 UTC)
予報対象時間: 25日23時 PDT ~ 26日23時 PDT
風向・風速不定 3m/s
視程10km以上
少しの雲 雲底高度 3,050m
全天の4割程度の雲 雲底高度 7,620m
26日2時 PDT から
風向・風速南西 3m/s
視程10km以上
少しの雲 雲底高度 3,050m
全天の4割程度の雲 雲底高度 7,620m
26日10時 PDT から
風向・風速東北東 3m/s
視程10km以上
少しの雲 雲底高度 3,050m
全天の8割程度の雲 雲底高度 7,620m
26日21時 PDT から
風向・風速南西 4m/s
視程10km以上
少しの雲 雲底高度 7,620m
KLAS 260520Z 2606/2706 VRB05KT P6SM FEW100 SCT250
FM260900 22006KT P6SM FEW100 SCT250
FM261700 07006KT P6SM FEW100 BKN250
FM270400 22008KT P6SM FEW250